sensor_id;sensor_type;location;lat;lon;timestamp;temperature;humidity
12967;DHT22;6548;49.996;8.238;2023-10-13T00:00:33;16.10;99.90
12967;DHT22;6548;49.996;8.238;2023-10-13T00:03:08;16.10;99.90
12967;DHT22;6548;49.996;8.238;2023-10-13T00:05:40;16.00;99.90
12967;DHT22;6548;49.996;8.238;2023-10-13T00:08:07;16.00;99.90
12967;DHT22;6548;49.996;8.238;2023-10-13T00:10:33;16.00;99.90
12967;DHT22;6548;49.996;8.238;2023-10-13T00:12:59;16.00;99.90
12967;DHT22;6548;49.996;8.238;2023-10-13T00:15:45;16.00;99.90
12967;DHT22;6548;49.996;8.238;2023-10-13T00:18:37;16.00;99.90
12967;DHT22;6548;49.996;8.238;2023-10-13T00:21:11;16.00;99.90
12967;DHT22;6548;49.996;8.238;2023-10-13T00:23:57;16.00;99.90
12967;DHT22;6548;49.996;8.238;2023-10-13T00:26:27;16.00;99.90
12967;DHT22;6548;49.996;8.238;2023-10-13T00:28:54;16.00;99.90
12967;DHT22;6548;49.996;8.238;2023-10-13T00:31:39;16.00;99.90
12967;DHT22;6548;49.996;8.238;2023-10-13T00:34:09;16.00;99.90
12967;DHT22;6548;49.996;8.238;2023-10-13T00:36:53;16.00;99.90
12967;DHT22;6548;49.996;8.238;2023-10-13T00:39:42;16.00;99.90
12967;DHT22;6548;49.996;8.238;2023-10-13T00:42:12;16.00;99.90
12967;DHT22;6548;49.996;8.238;2023-10-13T00:44:51;15.90;99.90
12967;DHT22;6548;49.996;8.238;2023-10-13T00:47:20;15.90;99.90
12967;DHT22;6548;49.996;8.238;2023-10-13T00:50:04;16.00;99.90
12967;DHT22;6548;49.996;8.238;2023-10-13T00:52:31;15.90;99.90
12967;DHT22;6548;49.996;8.238;2023-10-13T00:55:00;15.90;99.90
12967;DHT22;6548;49.996;8.238;2023-10-13T00:57:26;15.90;99.90
12967;DHT22;6548;49.996;8.238;2023-10-13T00:59:55;15.90;99.90
12967;DHT22;6548;49.996;8.238;2023-10-13T01:02:22;15.90;99.90
12967;DHT22;6548;49.996;8.238;2023-10-13T01:05:08;15.90;99.90
12967;DHT22;6548;49.996;8.238;2023-10-13T01:07:38;16.00;99.90
12967;DHT22;6548;49.996;8.238;2023-10-13T01:10:04;16.00;99.90
12967;DHT22;6548;49.996;8.238;2023-10-13T01:12:34;16.00;99.90
12967;DHT22;6548;49.996;8.238;2023-10-13T01:15:00;15.90;99.90
12967;DHT22;6548;49.996;8.238;2023-10-13T01:17:33;15.90;99.90
12967;DHT22;6548;49.996;8.238;2023-10-13T01:19:59;15.90;99.90
12967;DHT22;6548;49.996;8.238;2023-10-13T01:22:25;15.90;99.90
12967;DHT22;6548;49.996;8.238;2023-10-13T01:24:53;15.90;99.90
12967;DHT22;6548;49.996;8.238;2023-10-13T01:27:29;15.90;99.90
12967;DHT22;6548;49.996;8.238;2023-10-13T01:29:55;15.90;99.90
12967;DHT22;6548;49.996;8.238;2023-10-13T01:32:35;15.90;99.90
12967;DHT22;6548;49.996;8.238;2023-10-13T01:35:06;16.00;99.90
12967;DHT22;6548;49.996;8.238;2023-10-13T01:37:32;16.00;99.90
12967;DHT22;6548;49.996;8.238;2023-10-13T01:39:58;16.00;99.90
12967;DHT22;6548;49.996;8.238;2023-10-13T01:42:23;16.00;99.90
12967;DHT22;6548;49.996;8.238;2023-10-13T01:44:50;16.10;99.90
12967;DHT22;6548;49.996;8.238;2023-10-13T01:47:16;16.10;99.90
12967;DHT22;6548;49.996;8.238;2023-10-13T01:49:42;16.10;99.90
12967;DHT22;6548;49.996;8.238;2023-10-13T01:52:09;16.00;99.90
12967;DHT22;6548;49.996;8.238;2023-10-13T01:54:44;16.00;99.90
12967;DHT22;6548;49.996;8.238;2023-10-13T01:57:11;16.00;99.90
12967;DHT22;6548;49.996;8.238;2023-10-13T01:59:47;16.00;99.90
12967;DHT22;6548;49.996;8.238;2023-10-13T02:02:13;15.90;99.90
12967;DHT22;6548;49.996;8.238;2023-10-13T02:04:40;15.90;99.90
12967;DHT22;6548;49.996;8.238;2023-10-13T02:07:21;15.90;99.90
12967;DHT22;6548;49.996;8.238;2023-10-13T02:09:52;15.80;99.90
12967;DHT22;6548;49.996;8.238;2023-10-13T02:12:20;15.80;99.90
12967;DHT22;6548;49.996;8.238;2023-10-13T02:14:51;15.80;99.90
12967;DHT22;6548;49.996;8.238;2023-10-13T02:17:16;15.80;99.90
12967;DHT22;6548;49.996;8.238;2023-10-13T02:19:46;15.80;99.90
12967;DHT22;6548;49.996;8.238;2023-10-13T02:22:13;15.80;99.90
12967;DHT22;6548;49.996;8.238;2023-10-13T02:24:49;15.80;99.90
12967;DHT22;6548;49.996;8.238;2023-10-13T02:27:17;15.80;99.90
12967;DHT22;6548;49.996;8.238;2023-10-13T02:29:43;15.80;99.90
12967;DHT22;6548;49.996;8.238;2023-10-13T02:32:11;15.80;99.90
12967;DHT22;6548;49.996;8.238;2023-10-13T02:34:47;15.80;99.90
12967;DHT22;6548;49.996;8.238;2023-10-13T02:37:12;15.70;99.90
12967;DHT22;6548;49.996;8.238;2023-10-13T02:39:39;15.70;99.90
12967;DHT22;6548;49.996;8.238;2023-10-13T02:42:08;15.70;99.90
12967;DHT22;6548;49.996;8.238;2023-10-13T02:44:34;15.60;99.90
12967;DHT22;6548;49.996;8.238;2023-10-13T02:47:02;15.60;99.90
12967;DHT22;6548;49.996;8.238;2023-10-13T02:49:38;15.60;99.90
12967;DHT22;6548;49.996;8.238;2023-10-13T02:52:08;15.60;99.90
12967;DHT22;6548;49.996;8.238;2023-10-13T02:54:35;15.60;99.90
12967;DHT22;6548;49.996;8.238;2023-10-13T02:57:07;15.60;99.90
12967;DHT22;6548;49.996;8.238;2023-10-13T02:59:33;15.60;99.90
12967;DHT22;6548;49.996;8.238;2023-10-13T03:02:21;15.60;99.90
12967;DHT22;6548;49.996;8.238;2023-10-13T03:04:56;15.70;99.90
12967;DHT22;6548;49.996;8.238;2023-10-13T03:07:28;15.60;99.90
12967;DHT22;6548;49.996;8.238;2023-10-13T03:09:56;15.60;99.90
12967;DHT22;6548;49.996;8.238;2023-10-13T03:12:26;15.70;99.90
12967;DHT22;6548;49.996;8.238;2023-10-13T03:14:58;15.60;99.90
12967;DHT22;6548;49.996;8.238;2023-10-13T03:17:38;15.60;99.90
12967;DHT22;6548;49.996;8.238;2023-10-13T03:20:16;15.60;99.90
12967;DHT22;6548;49.996;8.238;2023-10-13T03:22:45;15.60;99.90
12967;DHT22;6548;49.996;8.238;2023-10-13T03:25:12;15.60;99.90
12967;DHT22;6548;49.996;8.238;2023-10-13T03:27:46;15.60;99.90
12967;DHT22;6548;49.996;8.238;2023-10-13T03:30:19;15.50;99.90
12967;DHT22;6548;49.996;8.238;2023-10-13T03:32:46;15.50;99.90
12967;DHT22;6548;49.996;8.238;2023-10-13T03:35:14;15.50;99.90
12967;DHT22;6548;49.996;8.238;2023-10-13T03:37:50;15.50;99.90
12967;DHT22;6548;49.996;8.238;2023-10-13T03:40:15;15.50;99.90
12967;DHT22;6548;49.996;8.238;2023-10-13T03:42:59;15.50;99.90
12967;DHT22;6548;49.996;8.238;2023-10-13T03:45:44;15.50;99.90
12967;DHT22;6548;49.996;8.238;2023-10-13T03:48:15;15.50;99.90
12967;DHT22;6548;49.996;8.238;2023-10-13T03:50:50;15.50;99.90
12967;DHT22;6548;49.996;8.238;2023-10-13T03:53:40;15.50;99.90
12967;DHT22;6548;49.996;8.238;2023-10-13T03:56:22;15.50;99.90
12967;DHT22;6548;49.996;8.238;2023-10-13T03:58:52;15.50;99.90
12967;DHT22;6548;49.996;8.238;2023-10-13T04:01:41;15.50;99.90
12967;DHT22;6548;49.996;8.238;2023-10-13T04:04:06;15.50;99.90
12967;DHT22;6548;49.996;8.238;2023-10-13T04:06:52;15.50;99.90
12967;DHT22;6548;49.996;8.238;2023-10-13T04:09:23;15.50;99.90
12967;DHT22;6548;49.996;8.238;2023-10-13T04:12:02;15.50;99.90
12967;DHT22;6548;49.996;8.238;2023-10-13T04:14:35;15.60;99.90
12967;DHT22;6548;49.996;8.238;2023-10-13T04:17:07;15.60;99.90
12967;DHT22;6548;49.996;8.238;2023-10-13T04:19:40;15.60;99.90
12967;DHT22;6548;49.996;8.238;2023-10-13T04:22:26;15.60;99.90
12967;DHT22;6548;49.996;8.238;2023-10-13T04:25:22;15.60;99.90
12967;DHT22;6548;49.996;8.238;2023-10-13T04:28:01;15.60;99.90
12967;DHT22;6548;49.996;8.238;2023-10-13T04:30:39;15.60;99.90
12967;DHT22;6548;49.996;8.238;2023-10-13T04:33:13;15.60;99.90
12967;DHT22;6548;49.996;8.238;2023-10-13T04:36:10;15.60;99.90
12967;DHT22;6548;49.996;8.238;2023-10-13T04:38:48;15.60;99.90
12967;DHT22;6548;49.996;8.238;2023-10-13T04:41:40;15.60;99.90
12967;DHT22;6548;49.996;8.238;2023-10-13T04:44:17;15.60;99.90
12967;DHT22;6548;49.996;8.238;2023-10-13T04:47:01;15.60;99.90
12967;DHT22;6548;49.996;8.238;2023-10-13T04:49:28;15.60;99.90
12967;DHT22;6548;49.996;8.238;2023-10-13T04:54:42;15.60;99.90
12967;DHT22;6548;49.996;8.238;2023-10-13T04:57:16;15.60;99.90
12967;DHT22;6548;49.996;8.238;2023-10-13T04:59:59;15.50;99.90
12967;DHT22;6548;49.996;8.238;2023-10-13T05:02:38;15.50;99.90
12967;DHT22;6548;49.996;8.238;2023-10-13T05:05:14;15.50;99.90
12967;DHT22;6548;49.996;8.238;2023-10-13T05:07:40;15.50;99.90
12967;DHT22;6548;49.996;8.238;2023-10-13T05:10:24;15.50;99.90
12967;DHT22;6548;49.996;8.238;2023-10-13T05:13:08;15.50;99.90
12967;DHT22;6548;49.996;8.238;2023-10-13T05:15:52;15.50;99.90
12967;DHT22;6548;49.996;8.238;2023-10-13T05:18:37;15.50;99.90
12967;DHT22;6548;49.996;8.238;2023-10-13T05:21:22;15.50;99.90
12967;DHT22;6548;49.996;8.238;2023-10-13T05:24:06;15.50;99.90
12967;DHT22;6548;49.996;8.238;2023-10-13T05:27:08;15.50;99.90
12967;DHT22;6548;49.996;8.238;2023-10-13T05:30:09;15.50;99.90
12967;DHT22;6548;49.996;8.238;2023-10-13T05:32:53;15.50;99.90
12967;DHT22;6548;49.996;8.238;2023-10-13T05:35:37;15.50;99.90
12967;DHT22;6548;49.996;8.238;2023-10-13T05:38:21;15.50;99.90
12967;DHT22;6548;49.996;8.238;2023-10-13T05:41:05;15.50;99.90
12967;DHT22;6548;49.996;8.238;2023-10-13T05:43:50;15.50;99.90
12967;DHT22;6548;49.996;8.238;2023-10-13T05:46:34;15.50;99.90
12967;DHT22;6548;49.996;8.238;2023-10-13T05:49:03;15.60;99.90
12967;DHT22;6548;49.996;8.238;2023-10-13T05:51:42;15.50;99.90
12967;DHT22;6548;49.996;8.238;2023-10-13T05:54:23;15.60;99.90
12967;DHT22;6548;49.996;8.238;2023-10-13T05:57:07;15.60;99.90
12967;DHT22;6548;49.996;8.238;2023-10-13T06:00:05;15.60;99.90
12967;DHT22;6548;49.996;8.238;2023-10-13T06:02:49;15.60;99.90
12967;DHT22;6548;49.996;8.238;2023-10-13T06:05:33;15.60;99.90
12967;DHT22;6548;49.996;8.238;2023-10-13T06:08:17;15.60;99.90
12967;DHT22;6548;49.996;8.238;2023-10-13T06:11:15;15.60;99.90
12967;DHT22;6548;49.996;8.238;2023-10-13T06:13:59;15.70;99.90
12967;DHT22;6548;49.996;8.238;2023-10-13T06:16:43;15.70;99.90
12967;DHT22;6548;49.996;8.238;2023-10-13T06:19:27;15.80;99.90
12967;DHT22;6548;49.996;8.238;2023-10-13T06:22:11;15.80;99.90
12967;DHT22;6548;49.996;8.238;2023-10-13T06:24:55;15.90;99.90
12967;DHT22;6548;49.996;8.238;2023-10-13T06:27:39;16.00;99.90
12967;DHT22;6548;49.996;8.238;2023-10-13T06:30:23;16.10;99.90
12967;DHT22;6548;49.996;8.238;2023-10-13T06:32:49;16.10;99.90
12967;DHT22;6548;49.996;8.238;2023-10-13T06:35:16;16.20;99.90
12967;DHT22;6548;49.996;8.238;2023-10-13T06:37:48;16.30;99.90
12967;DHT22;6548;49.996;8.238;2023-10-13T06:40:14;16.50;99.90
12967;DHT22;6548;49.996;8.238;2023-10-13T06:42:50;16.60;99.90
12967;DHT22;6548;49.996;8.238;2023-10-13T06:45:15;16.60;99.90
12967;DHT22;6548;49.996;8.238;2023-10-13T06:47:43;16.60;99.90
12967;DHT22;6548;49.996;8.238;2023-10-13T06:50:12;16.70;99.90
12967;DHT22;6548;49.996;8.238;2023-10-13T06:52:47;16.70;99.90
12967;DHT22;6548;49.996;8.238;2023-10-13T06:55:13;16.90;99.90
12967;DHT22;6548;49.996;8.238;2023-10-13T06:57:43;17.00;99.90
12967;DHT22;6548;49.996;8.238;2023-10-13T07:00:10;17.00;99.90
12967;DHT22;6548;49.996;8.238;2023-10-13T07:02:47;17.00;99.90
12967;DHT22;6548;49.996;8.238;2023-10-13T07:05:13;17.10;99.90
12967;DHT22;6548;49.996;8.238;2023-10-13T07:07:40;17.10;99.90
12967;DHT22;6548;49.996;8.238;2023-10-13T07:10:09;17.20;99.90
12967;DHT22;6548;49.996;8.238;2023-10-13T07:12:37;17.20;99.90
12967;DHT22;6548;49.996;8.238;2023-10-13T07:15:03;17.20;99.90
12967;DHT22;6548;49.996;8.238;2023-10-13T07:17:47;17.40;99.90
12967;DHT22;6548;49.996;8.238;2023-10-13T07:20:13;17.40;99.90
12967;DHT22;6548;49.996;8.238;2023-10-13T07:22:54;17.50;99.90
12967;DHT22;6548;49.996;8.238;2023-10-13T07:25:32;17.60;99.90
12967;DHT22;6548;49.996;8.238;2023-10-13T07:28:02;17.80;99.90
12967;DHT22;6548;49.996;8.238;2023-10-13T07:30:29;17.90;99.90
12967;DHT22;6548;49.996;8.238;2023-10-13T07:32:56;18.10;99.90
12967;DHT22;6548;49.996;8.238;2023-10-13T07:35:25;18.40;99.90
12967;DHT22;6548;49.996;8.238;2023-10-13T07:37:56;18.70;99.90
12967;DHT22;6548;49.996;8.238;2023-10-13T07:40:25;18.80;99.90
12967;DHT22;6548;49.996;8.238;2023-10-13T07:42:50;19.10;99.90
12967;DHT22;6548;49.996;8.238;2023-10-13T07:45:16;19.10;99.90
12967;DHT22;6548;49.996;8.238;2023-10-13T07:47:47;19.20;99.90
12967;DHT22;6548;49.996;8.238;2023-10-13T07:50:13;19.40;99.90
12967;DHT22;6548;49.996;8.238;2023-10-13T07:52:39;19.40;99.90
12967;DHT22;6548;49.996;8.238;2023-10-13T07:55:24;19.30;99.90
12967;DHT22;6548;49.996;8.238;2023-10-13T07:57:50;19.40;99.90
12967;DHT22;6548;49.996;8.238;2023-10-13T08:00:22;19.30;99.90
12967;DHT22;6548;49.996;8.238;2023-10-13T08:03:04;19.30;99.90
12967;DHT22;6548;49.996;8.238;2023-10-13T08:05:53;19.30;99.90
12967;DHT22;6548;49.996;8.238;2023-10-13T08:08:32;19.10;99.90
12967;DHT22;6548;49.996;8.238;2023-10-13T08:11:24;19.00;99.90
12967;DHT22;6548;49.996;8.238;2023-10-13T08:13:53;19.10;99.90
12967;DHT22;6548;49.996;8.238;2023-10-13T08:16:28;19.00;99.90
12967;DHT22;6548;49.996;8.238;2023-10-13T08:19:13;18.90;99.90
12967;DHT22;6548;49.996;8.238;2023-10-13T08:21:46;19.00;99.90
12967;DHT22;6548;49.996;8.238;2023-10-13T08:24:17;19.10;99.90
12967;DHT22;6548;49.996;8.238;2023-10-13T08:27:04;19.20;99.90
12967;DHT22;6548;49.996;8.238;2023-10-13T08:29:48;19.30;99.90
12967;DHT22;6548;49.996;8.238;2023-10-13T08:32:23;19.40;99.90
12967;DHT22;6548;49.996;8.238;2023-10-13T08:35:02;19.60;99.90
12967;DHT22;6548;49.996;8.238;2023-10-13T08:37:31;20.00;99.90
12967;DHT22;6548;49.996;8.238;2023-10-13T08:40:13;20.50;99.90
12967;DHT22;6548;49.996;8.238;2023-10-13T08:42:57;20.80;99.90
12967;DHT22;6548;49.996;8.238;2023-10-13T08:45:28;20.80;99.90
12967;DHT22;6548;49.996;8.238;2023-10-13T08:56:04;20.70;99.90
12967;DHT22;6548;49.996;8.238;2023-10-13T08:58:49;21.10;99.90
12967;DHT22;6548;49.996;8.238;2023-10-13T09:01:33;21.30;99.90
12967;DHT22;6548;49.996;8.238;2023-10-13T09:04:10;21.20;99.90
12967;DHT22;6548;49.996;8.238;2023-10-13T09:09:49;21.10;99.90
12967;DHT22;6548;49.996;8.238;2023-10-13T09:15:04;21.40;99.90
12967;DHT22;6548;49.996;8.238;2023-10-13T09:17:39;21.80;99.90
12967;DHT22;6548;49.996;8.238;2023-10-13T09:20:09;21.90;99.90
12967;DHT22;6548;49.996;8.238;2023-10-13T09:22:58;22.20;99.90
12967;DHT22;6548;49.996;8.238;2023-10-13T09:25:27;22.70;99.90
12967;DHT22;6548;49.996;8.238;2023-10-13T09:27:58;22.80;99.90
12967;DHT22;6548;49.996;8.238;2023-10-13T09:30:26;22.50;99.90
12967;DHT22;6548;49.996;8.238;2023-10-13T09:33:01;22.60;99.90
12967;DHT22;6548;49.996;8.238;2023-10-13T09:35:28;22.80;99.90
12967;DHT22;6548;49.996;8.238;2023-10-13T09:37:58;23.00;99.90
12967;DHT22;6548;49.996;8.238;2023-10-13T09:40:24;23.50;99.90
12967;DHT22;6548;49.996;8.238;2023-10-13T09:43:02;23.80;99.90
12967;DHT22;6548;49.996;8.238;2023-10-13T09:45:33;24.20;99.90
12967;DHT22;6548;49.996;8.238;2023-10-13T09:48:12;24.90;99.90
12967;DHT22;6548;49.996;8.238;2023-10-13T09:50:48;25.90;99.90
12967;DHT22;6548;49.996;8.238;2023-10-13T09:53:15;27.10;99.90
12967;DHT22;6548;49.996;8.238;2023-10-13T09:55:50;27.10;99.90
12967;DHT22;6548;49.996;8.238;2023-10-13T09:58:21;28.60;99.90
12967;DHT22;6548;49.996;8.238;2023-10-13T10:00:57;32.00;99.90
12967;DHT22;6548;49.996;8.238;2023-10-13T10:03:31;33.60;99.90
12967;DHT22;6548;49.996;8.238;2023-10-13T10:06:00;34.00;99.90
12967;DHT22;6548;49.996;8.238;2023-10-13T10:08:40;34.70;97.80
12967;DHT22;6548;49.996;8.238;2023-10-13T10:19:20;27.50;99.90
12967;DHT22;6548;49.996;8.238;2023-10-13T10:21:45;26.70;99.90
12967;DHT22;6548;49.996;8.238;2023-10-13T10:24:20;27.20;99.90
12967;DHT22;6548;49.996;8.238;2023-10-13T10:26:55;29.70;99.90
12967;DHT22;6548;49.996;8.238;2023-10-13T10:29:21;32.80;99.90
12967;DHT22;6548;49.996;8.238;2023-10-13T10:31:47;35.00;92.40
12967;DHT22;6548;49.996;8.238;2023-10-13T10:34:17;35.40;89.90
12967;DHT22;6548;49.996;8.238;2023-10-13T10:36:57;36.40;81.40
12967;DHT22;6548;49.996;8.238;2023-10-13T10:39:36;35.80;77.30
12967;DHT22;6548;49.996;8.238;2023-10-13T10:42:11;32.00;90.20
12967;DHT22;6548;49.996;8.238;2023-10-13T10:44:54;31.30;91.10
12967;DHT22;6548;49.996;8.238;2023-10-13T10:47:31;28.20;99.90
12967;DHT22;6548;49.996;8.238;2023-10-13T10:50:00;28.10;99.90
12967;DHT22;6548;49.996;8.238;2023-10-13T10:52:34;28.70;99.90
12967;DHT22;6548;49.996;8.238;2023-10-13T10:55:03;29.70;99.90
12967;DHT22;6548;49.996;8.238;2023-10-13T10:57:44;29.80;99.90
12967;DHT22;6548;49.996;8.238;2023-10-13T11:00:19;33.70;97.50
12967;DHT22;6548;49.996;8.238;2023-10-13T11:02:55;36.10;91.30
12967;DHT22;6548;49.996;8.238;2023-10-13T11:05:22;37.30;82.20
12967;DHT22;6548;49.996;8.238;2023-10-13T11:07:50;35.60;83.70
12967;DHT22;6548;49.996;8.238;2023-10-13T11:10:16;33.90;86.40
12967;DHT22;6548;49.996;8.238;2023-10-13T11:12:58;34.80;86.50
12967;DHT22;6548;49.996;8.238;2023-10-13T11:15:46;35.30;82.50
12967;DHT22;6548;49.996;8.238;2023-10-13T11:18:13;32.30;89.90
12967;DHT22;6548;49.996;8.238;2023-10-13T11:20:48;30.40;96.10
12967;DHT22;6548;49.996;8.238;2023-10-13T11:23:19;28.20;98.90
12967;DHT22;6548;49.996;8.238;2023-10-13T11:25:57;26.50;99.90
12967;DHT22;6548;49.996;8.238;2023-10-13T11:28:24;25.80;99.90
12967;DHT22;6548;49.996;8.238;2023-10-13T11:30:54;25.50;99.90
12967;DHT22;6548;49.996;8.238;2023-10-13T11:33:24;25.30;99.90
12967;DHT22;6548;49.996;8.238;2023-10-13T11:35:51;25.30;99.90
12967;DHT22;6548;49.996;8.238;2023-10-13T11:38:20;25.20;99.90
12967;DHT22;6548;49.996;8.238;2023-10-13T11:41:00;24.90;99.90
12967;DHT22;6548;49.996;8.238;2023-10-13T11:46:17;25.10;99.90
12967;DHT22;6548;49.996;8.238;2023-10-13T11:49:07;25.00;99.90
12967;DHT22;6548;49.996;8.238;2023-10-13T11:51:53;25.00;99.90
12967;DHT22;6548;49.996;8.238;2023-10-13T11:54:41;24.90;99.90
12967;DHT22;6548;49.996;8.238;2023-10-13T11:57:07;24.90;99.90
12967;DHT22;6548;49.996;8.238;2023-10-13T11:59:33;24.90;99.90
12967;DHT22;6548;49.996;8.238;2023-10-13T12:02:01;24.60;99.90
12967;DHT22;6548;49.996;8.238;2023-10-13T12:04:37;24.60;99.90
12967;DHT22;6548;49.996;8.238;2023-10-13T12:07:03;24.40;99.90
12967;DHT22;6548;49.996;8.238;2023-10-13T12:09:43;24.40;99.90
12967;DHT22;6548;49.996;8.238;2023-10-13T12:12:22;24.20;99.90
12967;DHT22;6548;49.996;8.238;2023-10-13T12:14:48;24.10;99.90
12967;DHT22;6548;49.996;8.238;2023-10-13T12:17:30;24.00;99.90
12967;DHT22;6548;49.996;8.238;2023-10-13T12:20:02;23.90;99.90
12967;DHT22;6548;49.996;8.238;2023-10-13T12:22:35;23.90;99.90
12967;DHT22;6548;49.996;8.238;2023-10-13T12:25:01;23.90;99.90
12967;DHT22;6548;49.996;8.238;2023-10-13T12:27:30;23.90;99.90
12967;DHT22;6548;49.996;8.238;2023-10-13T12:30:11;23.90;99.90
12967;DHT22;6548;49.996;8.238;2023-10-13T12:32:40;23.90;99.90
12967;DHT22;6548;49.996;8.238;2023-10-13T12:35:10;24.00;99.90
12967;DHT22;6548;49.996;8.238;2023-10-13T12:37:35;24.00;99.90
12967;DHT22;6548;49.996;8.238;2023-10-13T12:40:02;24.10;99.90
12967;DHT22;6548;49.996;8.238;2023-10-13T12:42:46;24.10;99.90
12967;DHT22;6548;49.996;8.238;2023-10-13T12:45:30;24.10;99.90
12967;DHT22;6548;49.996;8.238;2023-10-13T12:48:15;24.20;99.90
12967;DHT22;6548;49.996;8.238;2023-10-13T12:51:01;24.40;99.90
12967;DHT22;6548;49.996;8.238;2023-10-13T12:53:54;24.60;99.90
12967;DHT22;6548;49.996;8.238;2023-10-13T12:56:21;25.10;99.90
12967;DHT22;6548;49.996;8.238;2023-10-13T12:58:53;25.00;99.90
12967;DHT22;6548;49.996;8.238;2023-10-13T13:01:20;24.90;99.90
12967;DHT22;6548;49.996;8.238;2023-10-13T13:03:49;24.90;99.90
12967;DHT22;6548;49.996;8.238;2023-10-13T13:06:16;24.90;99.90
12967;DHT22;6548;49.996;8.238;2023-10-13T13:08:43;25.10;99.90
12967;DHT22;6548;49.996;8.238;2023-10-13T13:11:10;25.20;99.90
12967;DHT22;6548;49.996;8.238;2023-10-13T13:13:36;25.20;99.90
12967;DHT22;6548;49.996;8.238;2023-10-13T13:16:01;25.30;99.90
12967;DHT22;6548;49.996;8.238;2023-10-13T13:18:29;25.30;99.90
12967;DHT22;6548;49.996;8.238;2023-10-13T13:20:54;25.30;99.90
12967;DHT22;6548;49.996;8.238;2023-10-13T13:23:21;25.20;99.90
12967;DHT22;6548;49.996;8.238;2023-10-13T13:25:51;25.30;99.90
12967;DHT22;6548;49.996;8.238;2023-10-13T13:28:17;25.30;99.90
12967;DHT22;6548;49.996;8.238;2023-10-13T13:30:43;25.10;99.90
12967;DHT22;6548;49.996;8.238;2023-10-13T13:33:08;25.10;99.90
12967;DHT22;6548;49.996;8.238;2023-10-13T13:35:40;24.90;99.90
12967;DHT22;6548;49.996;8.238;2023-10-13T13:38:08;24.70;99.90
12967;DHT22;6548;49.996;8.238;2023-10-13T13:40:42;24.70;99.90
12967;DHT22;6548;49.996;8.238;2023-10-13T13:43:13;24.80;99.90
12967;DHT22;6548;49.996;8.238;2023-10-13T13:45:59;25.10;99.90
12967;DHT22;6548;49.996;8.238;2023-10-13T13:48:29;25.70;99.90
12967;DHT22;6548;49.996;8.238;2023-10-13T13:50:54;25.70;99.90
12967;DHT22;6548;49.996;8.238;2023-10-13T13:53:30;25.40;99.90
12967;DHT22;6548;49.996;8.238;2023-10-13T13:56:01;25.00;99.90
12967;DHT22;6548;49.996;8.238;2023-10-13T13:58:27;24.70;99.90
12967;DHT22;6548;49.996;8.238;2023-10-13T14:01:02;24.60;99.90
12967;DHT22;6548;49.996;8.238;2023-10-13T14:03:44;24.40;99.90
12967;DHT22;6548;49.996;8.238;2023-10-13T14:06:12;24.20;99.90
12967;DHT22;6548;49.996;8.238;2023-10-13T14:08:51;24.20;99.90
12967;DHT22;6548;49.996;8.238;2023-10-13T14:11:20;24.30;99.90
12967;DHT22;6548;49.996;8.238;2023-10-13T14:16:38;24.40;99.90
12967;DHT22;6548;49.996;8.238;2023-10-13T14:19:03;24.40;99.90
12967;DHT22;6548;49.996;8.238;2023-10-13T14:21:33;24.50;99.90
12967;DHT22;6548;49.996;8.238;2023-10-13T14:24:00;24.80;99.90
12967;DHT22;6548;49.996;8.238;2023-10-13T14:26:27;25.10;99.90
12967;DHT22;6548;49.996;8.238;2023-10-13T14:28:52;25.20;99.90
12967;DHT22;6548;49.996;8.238;2023-10-13T14:31:33;25.30;99.90
12967;DHT22;6548;49.996;8.238;2023-10-13T14:33:59;25.60;99.90
12967;DHT22;6548;49.996;8.238;2023-10-13T14:36:25;25.90;99.90
12967;DHT22;6548;49.996;8.238;2023-10-13T14:38:57;26.10;99.90
12967;DHT22;6548;49.996;8.238;2023-10-13T14:41:23;26.60;99.90
12967;DHT22;6548;49.996;8.238;2023-10-13T14:43:49;27.90;99.90
12967;DHT22;6548;49.996;8.238;2023-10-13T14:46:18;29.30;99.90
12967;DHT22;6548;49.996;8.238;2023-10-13T14:48:44;29.70;99.80
12967;DHT22;6548;49.996;8.238;2023-10-13T14:51:11;30.30;97.70
12967;DHT22;6548;49.996;8.238;2023-10-13T14:53:41;30.90;94.30
12967;DHT22;6548;49.996;8.238;2023-10-13T14:56:13;31.00;92.00
12967;DHT22;6548;49.996;8.238;2023-10-13T14:58:40;30.80;91.20
12967;DHT22;6548;49.996;8.238;2023-10-13T15:01:16;29.00;91.70
12967;DHT22;6548;49.996;8.238;2023-10-13T15:03:49;27.30;94.70
12967;DHT22;6548;49.996;8.238;2023-10-13T15:06:20;26.30;96.00
12967;DHT22;6548;49.996;8.238;2023-10-13T15:08:46;25.70;97.60
12967;DHT22;6548;49.996;8.238;2023-10-13T15:11:16;25.30;99.30
12967;DHT22;6548;49.996;8.238;2023-10-13T15:13:43;25.10;99.90
12967;DHT22;6548;49.996;8.238;2023-10-13T15:16:17;24.90;99.90
12967;DHT22;6548;49.996;8.238;2023-10-13T15:18:49;24.80;99.90
12967;DHT22;6548;49.996;8.238;2023-10-13T15:21:25;24.70;99.90
12967;DHT22;6548;49.996;8.238;2023-10-13T15:23:52;24.60;99.90
12967;DHT22;6548;49.996;8.238;2023-10-13T15:26:18;24.60;99.90
12967;DHT22;6548;49.996;8.238;2023-10-13T15:28:47;24.50;99.90
12967;DHT22;6548;49.996;8.238;2023-10-13T15:31:18;24.50;99.90
12967;DHT22;6548;49.996;8.238;2023-10-13T15:34:00;24.50;99.90
12967;DHT22;6548;49.996;8.238;2023-10-13T15:36:26;24.40;99.90
12967;DHT22;6548;49.996;8.238;2023-10-13T15:38:53;24.30;99.90
12967;DHT22;6548;49.996;8.238;2023-10-13T15:41:22;24.30;99.90
12967;DHT22;6548;49.996;8.238;2023-10-13T15:43:48;24.20;99.90
12967;DHT22;6548;49.996;8.238;2023-10-13T15:46:19;24.10;99.90
12967;DHT22;6548;49.996;8.238;2023-10-13T15:48:48;24.00;99.90
12967;DHT22;6548;49.996;8.238;2023-10-13T15:51:14;23.90;99.90
12967;DHT22;6548;49.996;8.238;2023-10-13T15:53:40;23.90;99.90
12967;DHT22;6548;49.996;8.238;2023-10-13T15:56:06;23.80;99.90
12967;DHT22;6548;49.996;8.238;2023-10-13T15:58:38;23.80;99.90
12967;DHT22;6548;49.996;8.238;2023-10-13T16:01:04;23.80;99.90
12967;DHT22;6548;49.996;8.238;2023-10-13T16:03:30;23.70;99.90
12967;DHT22;6548;49.996;8.238;2023-10-13T16:05:56;23.70;99.90
12967;DHT22;6548;49.996;8.238;2023-10-13T16:08:21;23.60;99.90
12967;DHT22;6548;49.996;8.238;2023-10-13T16:10:47;23.50;99.90
12967;DHT22;6548;49.996;8.238;2023-10-13T16:13:15;23.50;99.90
12967;DHT22;6548;49.996;8.238;2023-10-13T16:15:41;23.50;99.90
12967;DHT22;6548;49.996;8.238;2023-10-13T16:18:08;23.40;99.90
12967;DHT22;6548;49.996;8.238;2023-10-13T16:20:36;23.30;99.90
12967;DHT22;6548;49.996;8.238;2023-10-13T16:23:01;23.30;99.90
12967;DHT22;6548;49.996;8.238;2023-10-13T16:25:27;23.20;99.90
12967;DHT22;6548;49.996;8.238;2023-10-13T16:27:52;23.10;99.90
12967;DHT22;6548;49.996;8.238;2023-10-13T16:30:18;23.10;99.90
12967;DHT22;6548;49.996;8.238;2023-10-13T16:32:45;23.00;99.90
12967;DHT22;6548;49.996;8.238;2023-10-13T16:35:15;22.90;99.90
12967;DHT22;6548;49.996;8.238;2023-10-13T16:37:47;22.70;99.90
12967;DHT22;6548;49.996;8.238;2023-10-13T16:40:16;22.50;99.90
12967;DHT22;6548;49.996;8.238;2023-10-13T16:42:44;22.40;99.90
12967;DHT22;6548;49.996;8.238;2023-10-13T16:45:10;22.30;99.90
12967;DHT22;6548;49.996;8.238;2023-10-13T16:48:01;22.20;99.90
12967;DHT22;6548;49.996;8.238;2023-10-13T16:50:27;22.00;99.90
12967;DHT22;6548;49.996;8.238;2023-10-13T16:52:54;21.90;99.90